sensor_id;sensor_type;location;lat;lon;timestamp;pressure;altitude;pressure_sealevel;temperature;humidity
31011;BME280;26395;53.412;19.598;2023-08-01T00:04:12;99294.02;;;21.73;87.66
31011;BME280;26395;53.412;19.598;2023-08-01T00:19:15;99281.77;;;21.48;89.46
31011;BME280;26395;53.412;19.598;2023-08-01T00:34:19;99274.27;;;21.59;88.80
31011;BME280;26395;53.412;19.598;2023-08-01T00:49:22;99252.94;;;22.00;86.30
31011;BME280;26395;53.412;19.598;2023-08-01T01:04:26;99227.73;;;21.66;87.55
31011;BME280;26395;53.412;19.598;2023-08-01T01:19:30;99205.73;;;21.98;85.03
31011;BME280;26395;53.412;19.598;2023-08-01T01:34:33;99176.17;;;21.83;84.88
31011;BME280;26395;53.412;19.598;2023-08-01T01:49:37;99159.48;;;21.58;85.97
31011;BME280;26395;53.412;19.598;2023-08-01T02:04:40;99139.43;;;21.41;86.75
31011;BME280;26395;53.412;19.598;2023-08-01T02:19:44;99135.87;;;21.65;85.51
31011;BME280;26395;53.412;19.598;2023-08-01T02:34:47;99131.71;;;21.20;88.56
31011;BME280;26395;53.412;19.598;2023-08-01T02:49:51;99118.96;;;21.07;89.52
31011;BME280;26395;53.412;19.598;2023-08-01T03:04:54;99116.75;;;21.03;90.14
31011;BME280;26395;53.412;19.598;2023-08-01T03:19:58;99096.25;;;21.14;89.60
31011;BME280;26395;53.412;19.598;2023-08-01T03:35:05;99081.30;;;20.90;91.63
31011;BME280;26395;53.412;19.598;2023-08-01T03:50:09;99071.05;;;21.66;87.97
31011;BME280;26395;53.412;19.598;2023-08-01T04:05:13;99057.16;;;21.35;90.17
31011;BME280;26395;53.412;19.598;2023-08-01T04:20:16;99047.71;;;22.07;85.98
31011;BME280;26395;53.412;19.598;2023-08-01T04:35:19;99037.49;;;21.86;87.46
31011;BME280;26395;53.412;19.598;2023-08-01T04:50:23;99015.59;;;21.42;89.66
31011;BME280;26395;53.412;19.598;2023-08-01T05:05:27;99011.14;;;21.76;87.90
31011;BME280;26395;53.412;19.598;2023-08-01T05:20:30;99002.77;;;21.83;87.76
31011;BME280;26395;53.412;19.598;2023-08-01T05:35:34;98993.83;;;21.86;88.64
31011;BME280;26395;53.412;19.598;2023-08-01T05:50:38;99005.20;;;21.79;90.69
31011;BME280;26395;53.412;19.598;2023-08-01T06:05:41;98991.00;;;21.86;92.23
31011;BME280;26395;53.412;19.598;2023-08-01T06:20:45;98982.77;;;21.56;96.69
31011;BME280;26395;53.412;19.598;2023-08-01T06:35:48;98963.94;;;22.17;94.59
31011;BME280;26395;53.412;19.598;2023-08-01T06:50:52;98957.64;;;22.33;95.50
31011;BME280;26395;53.412;19.598;2023-08-01T07:05:55;98941.98;;;22.59;94.33
31011;BME280;26395;53.412;19.598;2023-08-01T07:21:02;98932.93;;;22.31;93.34
31011;BME280;26395;53.412;19.598;2023-08-01T07:36:06;98933.21;;;21.76;96.57
31011;BME280;26395;53.412;19.598;2023-08-01T07:51:09;98931.84;;;22.03;95.36
31011;BME280;26395;53.412;19.598;2023-08-01T08:06:14;98930.73;;;22.80;92.75
31011;BME280;26395;53.412;19.598;2023-08-01T08:21:18;98931.02;;;22.26;96.79
31011;BME280;26395;53.412;19.598;2023-08-01T08:36:21;98917.13;;;22.82;96.27
31011;BME280;26395;53.412;19.598;2023-08-01T08:51:26;98908.55;;;23.43;94.27
31011;BME280;26395;53.412;19.598;2023-08-01T09:06:44;98914.62;;;23.04;93.53
31011;BME280;26395;53.412;19.598;2023-08-01T09:21:51;98912.77;;;22.02;100.00
31011;BME280;26395;53.412;19.598;2023-08-01T09:36:59;98905.80;;;22.14;100.00
31011;BME280;26395;53.412;19.598;2023-08-01T09:52:03;98892.82;;;21.70;100.00
31011;BME280;26395;53.412;19.598;2023-08-01T10:07:08;98880.04;;;21.58;100.00
31011;BME280;26395;53.412;19.598;2023-08-01T10:22:15;98862.77;;;21.47;100.00
31011;BME280;26395;53.412;19.598;2023-08-01T10:37:19;98851.04;;;21.53;100.00
31011;BME280;26395;53.412;19.598;2023-08-01T10:52:26;98833.40;;;22.24;100.00
31011;BME280;26395;53.412;19.598;2023-08-01T11:07:32;98811.55;;;22.11;100.00
31011;BME280;26395;53.412;19.598;2023-08-01T11:22:49;98798.12;;;22.14;100.00
31011;BME280;26395;53.412;19.598;2023-08-01T11:37:54;98782.84;;;22.26;100.00
31011;BME280;26395;53.412;19.598;2023-08-01T11:53:00;98767.25;;;22.65;100.00
31011;BME280;26395;53.412;19.598;2023-08-01T12:08:09;98749.70;;;23.05;100.00
31011;BME280;26395;53.412;19.598;2023-08-01T12:23:23;98737.55;;;23.23;100.00
31011;BME280;26395;53.412;19.598;2023-08-01T12:38:27;98717.42;;;23.73;99.61
31011;BME280;26395;53.412;19.598;2023-08-01T12:53:31;98704.55;;;22.98;100.00
31011;BME280;26395;53.412;19.598;2023-08-01T13:08:38;98680.13;;;23.91;98.82
31011;BME280;26395;53.412;19.598;2023-08-01T13:23:43;98677.83;;;24.15;95.00
31011;BME280;26395;53.412;19.598;2023-08-01T13:38:48;98668.46;;;24.03;95.50
31011;BME280;26395;53.412;19.598;2023-08-01T13:53:52;98641.72;;;23.68;98.86
31011;BME280;26395;53.412;19.598;2023-08-01T14:08:59;98620.48;;;23.63;98.70
31011;BME280;26395;53.412;19.598;2023-08-01T14:24:04;98607.16;;;24.55;95.36
31011;BME280;26395;53.412;19.598;2023-08-01T14:39:09;98591.45;;;24.42;94.99
31011;BME280;26395;53.412;19.598;2023-08-01T14:54:24;98578.25;;;23.74;98.69
31011;BME280;26395;53.412;19.598;2023-08-01T15:09:43;98561.76;;;23.18;100.00
31011;BME280;26395;53.412;19.598;2023-08-01T15:24:49;98558.98;;;23.23;100.00
31011;BME280;26395;53.412;19.598;2023-08-01T15:39:53;98543.96;;;24.28;100.00
31011;BME280;26395;53.412;19.598;2023-08-01T15:54:57;98549.58;;;24.75;99.14
31011;BME280;26395;53.412;19.598;2023-08-01T16:10:01;98547.26;;;24.08;96.34
31011;BME280;26395;53.412;19.598;2023-08-01T16:25:05;98539.34;;;23.59;95.98
31011;BME280;26395;53.412;19.598;2023-08-01T16:40:09;98546.48;;;23.67;94.23
31011;BME280;26395;53.412;19.598;2023-08-01T16:55:17;98567.70;;;23.89;92.29
31011;BME280;26395;53.412;19.598;2023-08-01T17:10:20;98613.14;;;21.68;100.00
31011;BME280;26395;53.412;19.598;2023-08-01T17:25:24;98622.02;;;21.70;100.00
31011;BME280;26395;53.412;19.598;2023-08-01T17:40:28;98641.08;;;20.73;100.00
31011;BME280;26395;53.412;19.598;2023-08-01T17:55:31;98656.25;;;21.27;100.00
31011;BME280;26395;53.412;19.598;2023-08-01T18:10:36;98661.91;;;21.66;100.00
31011;BME280;26395;53.412;19.598;2023-08-01T18:25:40;98686.44;;;21.08;100.00
31011;BME280;26395;53.412;19.598;2023-08-01T18:40:44;98701.27;;;21.64;100.00
31011;BME280;26395;53.412;19.598;2023-08-01T18:55:48;98714.02;;;22.19;100.00
31011;BME280;26395;53.412;19.598;2023-08-01T19:10:51;98725.52;;;22.23;100.00
31011;BME280;26395;53.412;19.598;2023-08-01T19:25:55;98728.47;;;20.85;100.00
31011;BME280;26395;53.412;19.598;2023-08-01T19:40:59;98732.45;;;21.47;100.00
31011;BME280;26395;53.412;19.598;2023-08-01T19:56:04;98751.95;;;21.56;100.00
31011;BME280;26395;53.412;19.598;2023-08-01T20:11:08;98771.79;;;21.52;100.00
31011;BME280;26395;53.412;19.598;2023-08-01T20:26:12;98783.66;;;20.28;100.00
31011;BME280;26395;53.412;19.598;2023-08-01T20:41:17;98791.35;;;21.50;100.00
31011;BME280;26395;53.412;19.598;2023-08-01T20:56:24;98790.96;;;21.13;100.00
31011;BME280;26395;53.412;19.598;2023-08-01T21:11:28;98802.27;;;21.32;100.00
31011;BME280;26395;53.412;19.598;2023-08-01T21:26:32;98808.83;;;21.36;100.00
31011;BME280;26395;53.412;19.598;2023-08-01T21:41:36;98805.49;;;21.38;100.00
31011;BME280;26395;53.412;19.598;2023-08-01T21:56:40;98827.92;;;21.55;100.00
31011;BME280;26395;53.412;19.598;2023-08-01T22:11:44;98809.77;;;21.57;100.00
31011;BME280;26395;53.412;19.598;2023-08-01T22:26:49;98821.44;;;21.77;100.00
31011;BME280;26395;53.412;19.598;2023-08-01T22:41:54;98837.84;;;21.73;100.00
31011;BME280;26395;53.412;19.598;2023-08-01T22:56:58;98844.92;;;21.54;100.00
31011;BME280;26395;53.412;19.598;2023-08-01T23:12:02;98859.65;;;20.81;100.00
31011;BME280;26395;53.412;19.598;2023-08-01T23:27:10;98876.62;;;20.81;100.00
31011;BME280;26395;53.412;19.598;2023-08-01T23:42:14;98882.89;;;20.89;100.00
31011;BME280;26395;53.412;19.598;2023-08-01T23:57:18;98885.94;;;20.87;100.00
